Time;durP1;ratioP1;P1;durP2;ratioP2;P2;SDS_P1;SDS_P2;PMS_P1;PMS_P2;Temp;Humidity;BMP_temperature;BMP_pressure;BME280_temperature;BME280_humidity;BME280_pressure;Samples;Min_cycle;Max_cycle;Signal;HPM_P1;HPM_P2
2023/06/29 00:01:03;;;;;;;4.60;4.20;;;19.00;1.00;;;;;;5119738;27;20833;-53
2023/06/29 00:03:31;;;;;;;4.90;4.43;;;19.00;1.00;;;;;;5137827;27;20434;-51
2023/06/29 00:05:57;;;;;;;4.17;3.77;;;19.00;1.00;;;;;;5138450;27;20584;-50
2023/06/29 00:08:27;;;;;;;4.47;4.10;;;19.00;1.00;;;;;;5119553;27;20488;-53
2023/06/29 00:10:53;;;;;;;4.33;3.93;;;19.00;1.00;;;;;;5137532;27;20182;-52
2023/06/29 00:13:20;;;;;;;6.17;4.90;;;19.00;1.00;;;;;;5137414;27;20661;-51
2023/06/29 00:15:46;;;;;;;4.60;4.03;;;18.90;1.00;;;;;;5137203;27;20424;-49
2023/06/29 00:18:13;;;;;;;5.40;4.37;;;18.90;1.00;;;;;;5138024;27;20647;-51
2023/06/29 00:20:42;;;;;;;4.50;4.10;;;18.90;1.00;;;;;;5119733;27;20439;-53
2023/06/29 00:23:09;;;;;;;4.23;3.87;;;18.90;1.00;;;;;;5135054;27;20445;-54
2023/06/29 00:25:41;;;;;;;4.43;4.10;;;18.90;1.00;;;;;;5134835;27;20575;-50
2023/06/29 00:28:07;;;;;;;4.97;4.43;;;18.90;1.00;;;;;;5134222;27;20822;-54
2023/06/29 00:30:33;;;;;;;4.60;4.20;;;18.80;1.00;;;;;;5134239;27;20425;-51
2023/06/29 00:32:58;;;;;;;4.83;4.33;;;18.80;1.00;;;;;;5115848;27;20179;-54
2023/06/29 00:35:24;;;;;;;4.63;4.23;;;18.80;1.00;;;;;;5134111;27;20271;-51
2023/06/29 00:37:49;;;;;;;5.17;4.20;;;18.80;1.00;;;;;;5134456;27;20262;-51
2023/06/29 00:40:15;;;;;;;4.80;4.30;;;18.80;1.00;;;;;;5135042;27;20651;-50
2023/06/29 00:42:41;;;;;;;5.97;4.00;;;18.80;1.00;;;;;;5135890;27;20183;-52
2023/06/29 00:45:07;;;;;;;4.80;4.30;;;18.80;1.00;;;;;;5135502;27;20211;-51
2023/06/29 00:47:33;;;;;;;6.80;4.40;;;18.70;1.00;;;;;;5136550;27;20190;-52
2023/06/29 00:49:59;;;;;;;4.30;3.90;;;18.70;1.00;;;;;;5137347;27;20464;-48
2023/06/29 00:52:25;;;;;;;5.23;4.83;;;18.60;1.00;;;;;;5136759;27;20435;-54
2023/06/29 00:54:53;;;;;;;5.00;4.47;;;18.60;1.00;;;;;;5119696;27;20515;-49
2023/06/29 00:57:19;;;;;;;4.93;4.43;;;18.50;1.00;;;;;;5137678;27;20514;-53
2023/06/29 00:59:45;;;;;;;5.23;4.40;;;18.50;1.00;;;;;;5136403;27;20424;-50
2023/06/29 01:02:11;;;;;;;5.33;4.07;;;18.50;1.00;;;;;;5118988;27;20888;-49
2023/06/29 01:04:37;;;;;;;5.87;4.03;;;18.50;1.00;;;;;;5136855;27;20667;-50
2023/06/29 01:07:21;;;;;;;4.77;4.30;;;18.50;1.00;;;;;;5117645;27;20309;-52
2023/06/29 01:09:47;;;;;;;4.83;4.43;;;18.40;1.00;;;;;;5138381;27;20480;-50
2023/06/29 01:12:14;;;;;;;4.83;4.43;;;18.40;1.00;;;;;;5135975;27;20489;-51
2023/06/29 01:14:41;;;;;;;5.60;4.10;;;18.50;1.00;;;;;;5117288;27;20186;-51
2023/06/29 01:17:12;;;;;;;4.23;3.83;;;18.40;1.00;;;;;;5119115;27;20432;-50
2023/06/29 01:19:40;;;;;;;6.37;4.30;;;18.40;1.00;;;;;;5119458;27;20434;-53
2023/06/29 01:22:18;;;;;;;5.20;4.70;;;18.40;1.00;;;;;;5118514;27;20960;-50
2023/06/29 01:24:44;;;;;;;4.53;3.67;;;18.40;1.00;;;;;;5136804;27;20444;-50
2023/06/29 01:27:13;;;;;;;4.90;4.40;;;18.40;1.00;;;;;;5137772;27;20440;-53
2023/06/29 01:29:39;;;;;;;5.37;4.53;;;18.40;1.00;;;;;;5137021;27;20463;-49
2023/06/29 01:32:09;;;;;;;4.30;3.90;;;18.30;1.00;;;;;;5137703;27;20763;-49
2023/06/29 01:34:36;;;;;;;4.63;4.13;;;18.30;1.00;;;;;;5137966;27;20423;-49
2023/06/29 01:37:18;;;;;;;4.93;4.30;;;18.30;1.00;;;;;;5137576;27;20681;-52
2023/06/29 01:39:49;;;;;;;4.83;4.43;;;18.30;1.00;;;;;;5119629;27;20483;-51
2023/06/29 01:42:15;;;;;;;5.20;4.40;;;18.20;1.00;;;;;;5137780;27;20412;-48
2023/06/29 01:44:40;;;;;;;5.57;5.13;;;18.20;1.00;;;;;;5137087;27;20822;-52
2023/06/29 01:47:08;;;;;;;5.60;4.70;;;18.20;1.00;;;;;;5137189;28;20207;-51
2023/06/29 01:49:35;;;;;;;5.30;4.70;;;18.20;1.00;;;;;;5137022;28;20678;-51
2023/06/29 01:52:00;;;;;;;4.50;4.10;;;18.10;1.00;;;;;;5122426;27;20417;-49
2023/06/29 01:54:26;;;;;;;5.30;4.90;;;18.10;1.10;;;;;;5144072;27;20807;-50
2023/06/29 01:56:51;;;;;;;4.53;4.23;;;18.10;6.20;;;;;;5143731;27;20582;-49
2023/06/29 01:59:17;;;;;;;5.17;4.77;;;18.10;7.80;;;;;;5142384;27;20213;-51
2023/06/29 02:01:43;;;;;;;5.37;4.90;;;18.10;12.30;;;;;;5143359;27;20199;-52
2023/06/29 02:04:08;;;;;;;5.77;5.17;;;18.10;16.20;;;;;;5142742;27;20194;-50
2023/06/29 02:06:34;;;;;;;4.73;4.33;;;18.10;18.70;;;;;;5142542;27;20274;-51
2023/06/29 02:08:59;;;;;;;5.10;4.70;;;18.00;28.40;;;;;;5142382;27;20189;-49
2023/06/29 02:11:25;;;;;;;5.00;4.57;;;18.00;41.20;;;;;;5141431;27;20186;-52
2023/06/29 02:13:51;;;;;;;5.10;4.70;;;18.00;48.40;;;;;;5107129;28;20187;-53
2023/06/29 02:16:16;;;;;;;5.00;4.60;;;18.00;49.40;;;;;;5123520;28;20270;-49
2023/06/29 02:18:42;;;;;;;5.10;4.70;;;18.00;49.40;;;;;;5123779;28;20426;-49
2023/06/29 02:21:08;;;;;;;4.93;4.43;;;18.00;52.30;;;;;;5123230;28;20175;-50
2023/06/29 02:23:33;;;;;;;4.97;4.57;;;18.00;83.10;;;;;;5123042;28;20191;-51
2023/06/29 02:25:59;;;;;;;4.80;4.40;;;18.00;74.20;;;;;;5105266;28;20214;-49
2023/06/29 02:28:25;;;;;;;4.90;4.40;;;17.90;98.50;;;;;;5123282;28;20210;-50
2023/06/29 02:30:50;;;;;;;5.23;4.83;;;17.90;99.90;;;;;;5123438;28;20179;-51
2023/06/29 02:33:16;;;;;;;5.30;4.77;;;17.80;99.90;;;;;;5123299;28;20270;-52
2023/06/29 02:35:42;;;;;;;6.27;5.50;;;17.80;99.90;;;;;;5123280;27;20278;-52
2023/06/29 02:38:07;;;;;;;5.00;4.60;;;17.80;99.90;;;;;;5126027;27;20331;-51
2023/06/29 02:40:33;;;;;;;4.80;4.40;;;17.70;99.90;;;;;;5123290;28;20231;-51
2023/06/29 02:42:59;;;;;;;5.10;4.53;;;17.70;99.90;;;;;;5122132;28;20646;-50
2023/06/29 02:45:24;;;;;;;5.00;4.63;;;17.70;99.90;;;;;;5136777;27;20203;-51
2023/06/29 02:47:50;;;;;;;5.40;5.00;;;17.70;99.90;;;;;;5143217;27;20217;-51
2023/06/29 02:50:16;;;;;;;7.60;5.03;;;17.70;99.90;;;;;;5123915;27;20183;-50
2023/06/29 02:52:41;;;;;;;5.23;4.73;;;17.80;99.90;;;;;;5128896;27;20264;-50
2023/06/29 02:55:07;;;;;;;5.63;4.80;;;17.80;99.90;;;;;;5123039;28;20191;-49
2023/06/29 02:57:33;;;;;;;5.10;4.67;;;17.70;99.90;;;;;;5130956;27;20280;-48
2023/06/29 02:59:58;;;;;;;5.67;5.17;;;17.70;99.90;;;;;;5126976;27;20441;-48
2023/06/29 03:02:24;;;;;;;5.63;5.03;;;17.70;99.90;;;;;;5122602;28;20615;-49
2023/06/29 03:04:50;;;;;;;5.50;5.10;;;17.70;99.90;;;;;;5135879;27;20198;-49
2023/06/29 03:07:16;;;;;;;7.77;5.33;;;17.60;99.90;;;;;;5139211;27;20433;-51
2023/06/29 03:09:41;;;;;;;5.30;4.90;;;17.60;99.90;;;;;;5138576;27;20595;-51
2023/06/29 03:12:09;;;;;;;5.10;4.60;;;17.60;99.90;;;;;;5138243;27;20415;-49
2023/06/29 03:14:35;;;;;;;5.83;5.00;;;17.60;99.90;;;;;;5135908;27;20245;-53
2023/06/29 03:17:00;;;;;;;5.50;5.00;;;17.60;99.90;;;;;;5118518;28;20437;-50
2023/06/29 03:19:26;;;;;;;6.13;5.63;;;17.50;99.90;;;;;;5118278;28;20560;-52
2023/06/29 03:21:52;;;;;;;8.90;5.47;;;17.50;99.90;;;;;;5118279;28;20224;-51
2023/06/29 03:24:17;;;;;;;7.07;5.53;;;17.50;99.90;;;;;;5119571;28;20176;-50
2023/06/29 03:26:43;;;;;;;5.97;5.47;;;17.50;99.90;;;;;;5118764;28;20457;-50
2023/06/29 03:29:09;;;;;;;6.50;6.00;;;17.50;99.90;;;;;;5118849;28;20187;-50
2023/06/29 03:31:34;;;;;;;5.70;5.30;;;17.50;99.90;;;;;;5119113;28;20202;-51
2023/06/29 03:34:00;;;;;;;7.00;6.00;;;17.40;99.90;;;;;;5118930;28;20178;-49
2023/06/29 03:36:26;;;;;;;20.73;6.13;;;17.40;99.90;;;;;;5099623;28;20518;-51
2023/06/29 03:38:52;;;;;;;5.93;5.43;;;17.40;99.90;;;;;;5117328;28;20519;-53
2023/06/29 03:41:17;;;;;;;5.50;5.03;;;17.30;99.90;;;;;;5116824;28;20465;-51
2023/06/29 03:43:43;;;;;;;6.37;5.77;;;17.40;99.90;;;;;;5117482;28;20187;-55
2023/06/29 03:46:09;;;;;;;5.40;4.97;;;17.40;99.90;;;;;;5117897;28;20218;-49
2023/06/29 03:48:36;;;;;;;6.47;5.83;;;17.40;99.90;;;;;;5115970;28;20565;-52
2023/06/29 03:51:01;;;;;;;6.07;5.47;;;17.40;99.90;;;;;;5116498;28;20436;-50
2023/06/29 03:53:27;;;;;;;7.37;6.20;;;17.50;99.90;;;;;;5116288;28;20422;-51
2023/06/29 03:55:53;;;;;;;5.87;5.47;;;17.50;99.90;;;;;;5116412;28;20283;-50
2023/06/29 03:58:18;;;;;;;6.30;5.80;;;17.50;99.90;;;;;;5116061;28;20191;-50
2023/06/29 04:00:44;;;;;;;6.03;5.53;;;17.50;99.90;;;;;;5116639;28;20520;-54
2023/06/29 04:03:10;;;;;;;6.77;6.27;;;17.50;99.90;;;;;;5117925;28;20247;-51
2023/06/29 04:05:36;;;;;;;6.30;5.80;;;17.50;99.90;;;;;;5116875;28;20604;-55
2023/06/29 04:08:04;;;;;;;6.17;5.60;;;17.50;99.90;;;;;;5116328;28;20431;-56
2023/06/29 04:10:30;;;;;;;5.63;5.13;;;17.50;99.90;;;;;;5118210;28;20454;-55
2023/06/29 04:12:55;;;;;;;6.63;6.10;;;17.60;99.90;;;;;;5117339;28;20420;-56
2023/06/29 04:15:21;;;;;;;6.23;5.63;;;17.70;99.90;;;;;;5099194;28;20434;-54
2023/06/29 04:17:47;;;;;;;6.43;5.90;;;17.80;99.90;;;;;;5117446;28;20211;-53
2023/06/29 04:20:13;;;;;;;6.47;5.50;;;17.80;99.90;;;;;;5098622;27;20549;-55
2023/06/29 04:22:38;;;;;;;5.90;5.40;;;17.90;99.90;;;;;;5121729;27;20187;-51
2023/06/29 04:25:05;;;;;;;5.83;5.30;;;17.90;99.90;;;;;;5124937;27;20328;-55
2023/06/29 04:27:33;;;;;;;6.63;6.13;;;17.90;99.90;;;;;;5133441;27;20327;-55
2023/06/29 04:29:59;;;;;;;6.73;6.07;;;17.90;99.90;;;;;;5133727;27;20507;-55
2023/06/29 04:32:24;;;;;;;6.73;6.13;;;17.90;99.90;;;;;;5136093;27;20589;-57
2023/06/29 04:34:50;;;;;;;6.30;5.70;;;17.90;99.90;;;;;;5134992;27;20624;-56
2023/06/29 04:37:15;;;;;;;5.97;5.47;;;18.00;99.90;;;;;;5136143;27;20186;-54
2023/06/29 04:39:41;;;;;;;6.67;6.10;;;18.10;99.90;;;;;;5133673;27;20262;-54
2023/06/29 04:42:10;;;;;;;6.00;5.40;;;18.10;99.90;;;;;;5134333;27;20270;-54
2023/06/29 04:44:37;;;;;;;7.07;6.47;;;18.20;99.90;;;;;;5134756;27;20267;-57
2023/06/29 04:47:03;;;;;;;6.53;5.93;;;18.30;99.90;;;;;;5135559;27;20773;-57
2023/06/29 04:49:36;;;;;;;6.87;6.27;;;18.30;99.90;;;;;;5134309;27;20439;-52
2023/06/29 04:52:02;;;;;;;7.13;6.50;;;18.40;99.90;;;;;;5128356;27;21275;-54
2023/06/29 04:54:28;;;;;;;7.70;6.80;;;18.40;99.90;;;;;;5133749;27;20869;-53
2023/06/29 04:56:54;;;;;;;6.27;5.70;;;18.50;99.90;;;;;;5134490;27;20456;-56
2023/06/29 04:59:23;;;;;;;6.17;5.67;;;18.50;99.90;;;;;;5134275;27;20178;-56
2023/06/29 05:01:49;;;;;;;6.63;5.97;;;18.60;99.90;;;;;;5123589;27;20904;-57
2023/06/29 05:04:14;;;;;;;7.90;6.10;;;18.60;99.90;;;;;;5109001;27;20432;-55
2023/06/29 05:06:40;;;;;;;6.20;5.70;;;18.70;99.90;;;;;;5135218;27;20464;-56
2023/06/29 05:09:05;;;;;;;6.57;5.97;;;18.70;99.90;;;;;;5133597;27;20182;-56
2023/06/29 05:11:31;;;;;;;6.20;5.80;;;18.80;95.70;;;;;;5133634;27;20186;-53
2023/06/29 05:13:57;;;;;;;6.57;6.07;;;19.00;55.00;;;;;;5132480;27;20175;-57
2023/06/29 05:16:23;;;;;;;6.30;5.70;;;19.00;35.00;;;;;;5112356;28;20429;-57
2023/06/29 05:18:49;;;;;;;6.07;5.60;;;19.10;25.60;;;;;;5114575;28;20410;-56
2023/06/29 05:21:14;;;;;;;11.03;6.27;;;19.20;13.30;;;;;;5094117;28;20298;-55
2023/06/29 05:23:40;;;;;;;6.40;5.83;;;19.30;1.00;;;;;;5111981;28;20494;-55
2023/06/29 05:26:09;;;;;;;7.20;6.30;;;19.40;1.00;;;;;;5110068;28;20254;-55
2023/06/29 05:28:34;;;;;;;5.80;5.40;;;19.50;1.00;;;;;;5112625;28;20489;-55
2023/06/29 05:31:00;;;;;;;6.30;5.80;;;19.50;1.00;;;;;;5132306;27;20471;-56
2023/06/29 05:33:26;;;;;;;7.30;6.67;;;19.60;1.00;;;;;;5133338;27;20593;-53
2023/06/29 05:35:51;;;;;;;6.67;6.17;;;19.70;1.00;;;;;;5134830;27;20302;-54
2023/06/29 05:38:17;;;;;;;7.20;6.50;;;19.70;1.00;;;;;;5132809;27;20189;-54
2023/06/29 05:40:45;;;;;;;6.67;6.17;;;19.80;1.00;;;;;;5134243;27;20187;-56
2023/06/29 05:43:10;;;;;;;6.80;6.20;;;19.80;1.00;;;;;;5135327;27;20523;-55
2023/06/29 05:45:36;;;;;;;6.50;5.90;;;20.00;1.00;;;;;;5134751;27;20949;-55
2023/06/29 05:48:02;;;;;;;7.30;5.60;;;20.10;1.00;;;;;;5134656;27;20179;-56
2023/06/29 05:50:28;;;;;;;6.97;6.37;;;20.20;1.00;;;;;;5116564;28;20460;-57
2023/06/29 05:52:54;;;;;;;6.60;6.00;;;20.30;1.00;;;;;;5114062;28;20441;-56
2023/06/29 05:55:19;;;;;;;6.60;6.10;;;20.40;1.00;;;;;;5075950;28;20196;-53
2023/06/29 05:57:45;;;;;;;5.40;4.90;;;20.50;1.00;;;;;;5110955;28;20195;-56
2023/06/29 06:00:12;;;;;;;6.83;6.00;;;20.60;1.00;;;;;;5111009;28;20179;-56
2023/06/29 06:02:40;;;;;;;7.43;5.50;;;20.80;1.00;;;;;;5108903;28;20176;-55
2023/06/29 06:05:14;;;;;;;6.10;5.60;;;20.90;1.00;;;;;;5111014;28;20884;-56
2023/06/29 06:07:40;;;;;;;6.60;5.50;;;21.00;1.00;;;;;;5111304;28;20524;-58
2023/06/29 06:10:06;;;;;;;6.27;5.20;;;21.00;1.00;;;;;;5122336;28;20429;-57
2023/06/29 06:12:31;;;;;;;5.40;4.90;;;21.10;1.00;;;;;;5130533;28;20186;-58
2023/06/29 06:14:57;;;;;;;6.67;5.10;;;21.20;1.00;;;;;;5129272;28;20428;-56
2023/06/29 06:17:23;;;;;;;5.17;4.77;;;21.30;1.00;;;;;;5129889;28;20579;-57
2023/06/29 06:19:49;;;;;;;6.10;5.50;;;21.50;1.00;;;;;;5130735;28;20674;-57
2023/06/29 06:22:15;;;;;;;4.57;4.17;;;21.50;1.00;;;;;;5129515;28;20520;-57
2023/06/29 06:24:40;;;;;;;5.17;4.70;;;21.60;1.00;;;;;;5132217;28;20171;-57
2023/06/29 06:27:07;;;;;;;7.27;4.00;;;21.80;1.00;;;;;;5113767;28;20215;-56
2023/06/29 06:29:33;;;;;;;5.87;5.27;;;22.00;1.00;;;;;;5112722;28;20183;-57
2023/06/29 06:31:59;;;;;;;4.77;4.13;;;22.10;1.00;;;;;;5112226;28;20426;-57
2023/06/29 06:34:30;;;;;;;7.43;4.40;;;22.20;1.00;;;;;;5123951;28;20447;-57
2023/06/29 06:36:58;;;;;;;4.97;4.20;;;22.20;1.00;;;;;;5132335;27;20270;-56
2023/06/29 06:39:23;;;;;;;5.87;4.10;;;22.20;1.00;;;;;;5134861;27;20850;-56
2023/06/29 06:41:50;;;;;;;3.70;3.40;;;22.20;1.00;;;;;;5134454;27;20515;-58
2023/06/29 06:44:16;;;;;;;5.10;4.10;;;22.30;1.00;;;;;;5118126;27;20244;-56
2023/06/29 06:46:41;;;;;;;5.60;4.00;;;22.40;1.00;;;;;;5135925;27;20780;-57
2023/06/29 06:49:07;;;;;;;3.70;3.40;;;22.50;1.00;;;;;;5134679;27;20833;-55
2023/06/29 06:51:32;;;;;;;5.87;4.50;;;22.60;1.00;;;;;;5128982;27;20195;-57
2023/06/29 06:53:59;;;;;;;4.50;3.90;;;22.70;1.00;;;;;;5126449;27;20585;-58
2023/06/29 06:56:24;;;;;;;6.37;4.07;;;22.70;1.00;;;;;;5115627;28;20176;-56
2023/06/29 06:58:50;;;;;;;5.80;4.30;;;22.60;1.00;;;;;;5122830;27;20441;-55
2023/06/29 07:01:17;;;;;;;5.67;4.00;;;22.70;1.00;;;;;;5123957;27;20262;-58
2023/06/29 07:03:43;;;;;;;4.50;4.10;;;22.70;1.00;;;;;;5135222;27;20281;-56
2023/06/29 07:06:10;;;;;;;4.93;4.40;;;22.80;1.00;;;;;;5136676;27;20953;-54
2023/06/29 07:08:37;;;;;;;5.13;4.30;;;22.90;1.00;;;;;;5124778;27;20214;-55
2023/06/29 07:11:03;;;;;;;3.70;3.30;;;23.00;1.00;;;;;;5119561;27;20439;-55
2023/06/29 07:13:29;;;;;;;4.77;3.80;;;23.10;1.00;;;;;;5136880;27;20509;-57
2023/06/29 07:15:55;;;;;;;4.73;4.13;;;23.20;1.00;;;;;;5137157;27;20183;-57
2023/06/29 07:18:22;;;;;;;4.10;3.53;;;23.40;1.00;;;;;;5137715;27;20424;-53
2023/06/29 07:20:51;;;;;;;4.83;3.70;;;23.50;1.00;;;;;;5136592;27;20527;-57
2023/06/29 07:23:16;;;;;;;4.97;3.47;;;23.80;1.00;;;;;;5136768;27;20737;-57
2023/06/29 07:25:44;;;;;;;3.90;3.60;;;24.10;1.00;;;;;;5130522;27;20465;-57
2023/06/29 07:28:10;;;;;;;5.17;3.77;;;24.20;1.00;;;;;;5119871;27;20515;-58
2023/06/29 07:30:36;;;;;;;4.47;4.07;;;24.20;1.00;;;;;;5129556;27;20433;-56
2023/06/29 07:33:01;;;;;;;5.20;3.73;;;24.50;1.00;;;;;;5130915;27;20712;-57
2023/06/29 07:35:28;;;;;;;4.87;3.43;;;24.70;1.00;;;;;;5115510;28;20194;-58
2023/06/29 07:37:54;;;;;;;6.00;3.97;;;24.90;1.00;;;;;;5116009;28;20477;-57
2023/06/29 07:40:19;;;;;;;4.43;3.77;;;25.10;1.00;;;;;;5114962;28;20481;-57
2023/06/29 07:42:45;;;;;;;6.47;4.27;;;25.00;1.00;;;;;;5116489;28;20180;-54
2023/06/29 07:45:14;;;;;;;3.90;3.60;;;25.20;1.00;;;;;;5116778;28;20175;-56
2023/06/29 07:47:39;;;;;;;4.50;3.50;;;25.20;1.00;;;;;;5114033;28;20187;-56
2023/06/29 07:50:05;;;;;;;5.30;3.80;;;25.40;1.00;;;;;;5112654;28;20422;-58
2023/06/29 07:52:31;;;;;;;3.90;3.30;;;25.40;1.00;;;;;;5124016;27;20189;-54
2023/06/29 07:54:57;;;;;;;5.60;4.13;;;25.40;1.00;;;;;;5132028;27;20412;-58
2023/06/29 07:57:23;;;;;;;4.90;3.70;;;25.40;1.00;;;;;;5129237;27;20558;-56
2023/06/29 07:59:49;;;;;;;6.83;4.40;;;25.40;1.00;;;;;;5138420;27;20440;-56
2023/06/29 08:02:15;;;;;;;3.77;3.40;;;25.60;1.00;;;;;;5131246;27;20183;-57
2023/06/29 08:04:42;;;;;;;3.93;3.63;;;25.60;1.00;;;;;;5128461;27;20468;-55
2023/06/29 08:07:08;;;;;;;4.03;3.63;;;25.70;1.00;;;;;;5118185;27;20477;-56
2023/06/29 08:09:33;;;;;;;7.50;4.30;;;25.70;1.00;;;;;;5111168;28;20703;-56
2023/06/29 08:11:59;;;;;;;5.33;3.93;;;26.00;1.00;;;;;;5134329;27;20473;-57
2023/06/29 08:14:25;;;;;;;4.20;3.80;;;26.10;1.00;;;;;;5135249;27;20235;-57
2023/06/29 08:16:50;;;;;;;8.53;4.40;;;26.00;1.00;;;;;;5134410;27;20713;-57
2023/06/29 08:19:16;;;;;;;3.90;3.53;;;26.20;1.00;;;;;;5134590;27;20283;-58
2023/06/29 08:21:42;;;;;;;4.20;3.57;;;26.40;1.00;;;;;;5134587;27;20504;-56
2023/06/29 08:24:08;;;;;;;4.17;3.77;;;26.30;1.00;;;;;;5115429;28;20180;-55
2023/06/29 08:26:34;;;;;;;4.03;3.73;;;26.30;1.00;;;;;;5114283;28;20280;-57
2023/06/29 08:29:00;;;;;;;6.20;3.70;;;26.30;1.00;;;;;;5097226;28;20425;-57
2023/06/29 08:31:26;;;;;;;4.20;3.63;;;26.00;1.00;;;;;;5116425;28;20418;-56
2023/06/29 08:33:52;;;;;;;4.20;3.80;;;25.80;1.00;;;;;;5115165;28;20233;-57
2023/06/29 08:36:17;;;;;;;4.33;3.93;;;25.70;1.00;;;;;;5114978;28;21082;-55
2023/06/29 08:38:48;;;;;;;3.77;3.37;;;25.60;1.00;;;;;;5119489;27;20227;-57
2023/06/29 08:41:15;;;;;;;4.40;4.00;;;25.50;1.00;;;;;;5124792;27;20179;-57
2023/06/29 08:43:41;;;;;;;3.93;3.53;;;25.60;1.00;;;;;;5135281;27;20421;-56
2023/06/29 08:46:07;;;;;;;4.53;4.10;;;25.70;1.00;;;;;;5133639;27;20494;-56
2023/06/29 08:48:34;;;;;;;4.30;3.90;;;26.00;1.00;;;;;;5131087;27;20474;-55
2023/06/29 08:51:06;;;;;;;4.40;3.20;;;26.50;1.00;;;;;;5124473;27;20417;-57
2023/06/29 08:53:33;;;;;;;5.77;4.83;;;26.70;1.00;;;;;;5114843;28;20852;-58
2023/06/29 08:55:59;;;;;;;3.87;3.57;;;26.90;1.00;;;;;;5113411;28;20496;-56
2023/06/29 08:58:25;;;;;;;3.40;3.10;;;27.30;1.00;;;;;;5114242;28;20782;-57
2023/06/29 09:00:53;;;;;;;3.83;3.37;;;27.70;1.00;;;;;;5105971;28;20180;-57
2023/06/29 09:03:19;;;;;;;4.50;3.27;;;27.90;1.00;;;;;;5132313;27;20782;-57
2023/06/29 09:05:45;;;;;;;4.73;3.57;;;27.80;1.00;;;;;;5129870;27;20565;-57
2023/06/29 09:08:11;;;;;;;8.03;3.60;;;26.90;1.00;;;;;;5113007;28;20500;-55
2023/06/29 09:10:39;;;;;;;3.50;3.20;;;26.70;1.00;;;;;;5113506;28;20926;-57
2023/06/29 09:13:05;;;;;;;4.53;3.90;;;26.50;1.00;;;;;;5096012;28;20457;-57
2023/06/29 09:15:31;;;;;;;4.23;3.33;;;26.80;1.00;;;;;;5114534;28;20402;-56
2023/06/29 09:17:57;;;;;;;4.80;3.83;;;27.10;1.00;;;;;;5112232;28;20510;-57
2023/06/29 09:20:25;;;;;;;4.83;3.13;;;27.30;1.00;;;;;;5111212;28;20765;-55
2023/06/29 09:22:51;;;;;;;5.30;3.20;;;27.60;1.00;;;;;;5112014;28;20410;-58
2023/06/29 09:25:21;;;;;;;3.70;3.30;;;28.00;1.00;;;;;;5114175;28;20433;-59
2023/06/29 09:27:48;;;;;;;3.60;3.30;;;27.80;1.00;;;;;;5114054;28;20504;-58
2023/06/29 09:30:19;;;;;;;6.43;3.50;;;28.10;1.00;;;;;;5095060;28;20405;-58
2023/06/29 09:32:44;;;;;;;4.20;3.70;;;27.90;1.00;;;;;;5112180;28;20467;-57
2023/06/29 09:35:10;;;;;;;3.27;2.97;;;27.70;1.00;;;;;;5114154;28;20771;-57
2023/06/29 09:37:36;;;;;;;3.93;2.77;;;27.90;1.00;;;;;;5114113;28;20184;-55
2023/06/29 09:40:09;;;;;;;4.10;2.90;;;28.30;1.00;;;;;;5113231;28;20813;-56
2023/06/29 09:42:38;;;;;;;4.50;3.10;;;28.10;1.00;;;;;;5113169;28;20406;-57
2023/06/29 09:45:11;;;;;;;4.00;3.60;;;28.10;1.00;;;;;;5112784;28;20405;-57
2023/06/29 09:47:42;;;;;;;5.17;3.60;;;28.10;1.00;;;;;;5113284;28;20414;-56
2023/06/29 09:50:19;;;;;;;4.90;3.20;;;28.10;1.00;;;;;;5113501;28;20425;-57
2023/06/29 09:52:50;;;;;;;3.50;3.17;;;28.30;1.00;;;;;;5112342;28;20460;-57
2023/06/29 09:55:16;;;;;;;6.03;2.77;;;28.00;1.00;;;;;;5112772;28;20882;-58
2023/06/29 09:57:53;;;;;;;4.27;3.40;;;28.00;1.00;;;;;;5112652;28;20504;-59
2023/06/29 10:00:20;;;;;;;6.53;3.80;;;28.20;1.00;;;;;;5112059;28;20163;-58
2023/06/29 10:02:45;;;;;;;6.00;3.83;;;28.50;1.00;;;;;;5112247;28;20874;-59
2023/06/29 10:05:11;;;;;;;4.80;4.20;;;28.80;1.00;;;;;;5095009;28;20413;-56
2023/06/29 10:07:37;;;;;;;5.80;3.57;;;29.00;1.00;;;;;;5110064;28;20246;-53
2023/06/29 10:10:05;;;;;;;4.40;3.43;;;28.90;1.00;;;;;;5111422;28;20504;-53
2023/06/29 10:12:32;;;;;;;4.10;3.23;;;29.00;1.00;;;;;;5114232;28;20459;-56
2023/06/29 10:15:08;;;;;;;4.03;3.63;;;29.00;1.00;;;;;;5125255;27;20443;-54
2023/06/29 10:18:09;;;;;;;4.83;4.03;;;29.00;1.00;;;;;;5118921;27;20500;-54
2023/06/29 10:20:37;;;;;;;6.03;4.07;;;29.60;1.00;;;;;;5116515;28;20428;-53
2023/06/29 10:23:04;;;;;;;4.87;3.70;;;29.90;1.00;;;;;;5100812;27;20696;-56
2023/06/29 10:25:33;;;;;;;4.13;3.83;;;30.00;1.00;;;;;;5134744;27;20460;-52
2023/06/29 10:27:58;;;;;;;4.80;4.00;;;29.90;1.00;;;;;;5134013;27;20448;-55
2023/06/29 10:30:25;;;;;;;4.77;4.03;;;29.80;1.00;;;;;;5117075;27;20448;-54
2023/06/29 10:32:52;;;;;;;5.20;4.70;;;30.00;1.00;;;;;;5130173;27;20184;-55
2023/06/29 10:35:17;;;;;;;5.10;4.33;;;30.00;1.00;;;;;;5121202;27;20998;-54
2023/06/29 10:37:47;;;;;;;5.50;4.20;;;29.90;1.00;;;;;;5121195;27;20411;-57
2023/06/29 10:40:13;;;;;;;4.03;3.50;;;29.90;1.00;;;;;;5123542;27;20239;-56
2023/06/29 10:42:39;;;;;;;5.20;4.47;;;30.00;1.00;;;;;;5115876;28;20401;-54
2023/06/29 10:45:19;;;;;;;4.97;4.47;;;30.50;1.00;;;;;;5115945;28;20421;-53
2023/06/29 10:47:56;;;;;;;4.10;3.70;;;30.80;1.00;;;;;;5117939;27;20178;-57
2023/06/29 10:50:28;;;;;;;3.97;3.63;;;31.10;1.00;;;;;;5116315;28;20413;-55
2023/06/29 10:52:58;;;;;;;5.47;4.20;;;31.20;1.00;;;;;;5116983;28;20756;-54
2023/06/29 10:55:26;;;;;;;4.73;4.23;;;31.10;1.00;;;;;;5115941;28;20417;-57
2023/06/29 10:57:51;;;;;;;5.03;4.20;;;31.70;1.00;;;;;;5097230;28;20421;-56
2023/06/29 11:00:17;;;;;;;4.20;3.80;;;32.40;1.00;;;;;;5116224;28;20406;-58
2023/06/29 11:02:44;;;;;;;3.77;3.40;;;33.00;1.00;;;;;;5097050;28;20187;-53
2023/06/29 11:05:19;;;;;;;5.37;4.63;;;33.60;1.00;;;;;;5115838;28;20425;-57
2023/06/29 11:07:48;;;;;;;6.70;4.13;;;33.60;1.00;;;;;;5111872;28;20453;-56
2023/06/29 11:10:14;;;;;;;6.70;4.03;;;33.30;1.00;;;;;;5092932;28;20392;-55
2023/06/29 11:12:40;;;;;;;7.70;4.77;;;33.20;1.00;;;;;;5113011;28;20422;-55
2023/06/29 11:15:13;;;;;;;5.07;4.57;;;33.40;1.00;;;;;;5114933;28;20523;-56
2023/06/29 11:17:39;;;;;;;4.50;4.10;;;33.90;1.00;;;;;;5114258;28;20488;-57
2023/06/29 11:20:06;;;;;;;5.60;5.10;;;33.50;1.00;;;;;;5113956;28;20511;-53
2023/06/29 11:22:33;;;;;;;4.60;4.20;;;33.20;1.00;;;;;;5113589;28;20432;-55
2023/06/29 11:24:58;;;;;;;5.70;5.10;;;32.70;1.00;;;;;;5112866;28;20824;-55
2023/06/29 11:27:24;;;;;;;5.13;4.27;;;32.70;1.00;;;;;;5133042;27;20499;-56
2023/06/29 11:29:56;;;;;;;6.13;4.10;;;33.00;1.00;;;;;;5135859;27;20414;-56
2023/06/29 11:32:23;;;;;;;10.27;5.00;;;33.40;1.00;;;;;;5133200;27;20179;-58
2023/06/29 11:35:03;;;;;;;6.27;4.97;;;33.80;1.00;;;;;;5133511;27;20495;-56
2023/06/29 11:37:29;;;;;;;9.33;5.20;;;33.90;1.00;;;;;;5117964;27;20492;-58
2023/06/29 11:39:54;;;;;;;7.10;5.07;;;34.00;1.00;;;;;;5111809;28;20452;-55
2023/06/29 11:42:21;;;;;;;7.60;5.13;;;34.30;1.00;;;;;;5112883;28;20403;-55
2023/06/29 11:45:06;;;;;;;5.93;5.33;;;34.80;1.00;;;;;;5113880;28;20171;-51
2023/06/29 11:47:32;;;;;;;8.40;7.60;;;35.30;1.00;;;;;;5112771;28;20418;-50
2023/06/29 11:50:02;;;;;;;8.20;7.40;;;35.70;1.00;;;;;;5113690;28;20835;-48
2023/06/29 11:52:32;;;;;;;8.23;7.40;;;35.60;1.00;;;;;;5114021;28;20413;-47
2023/06/29 11:55:03;;;;;;;9.23;7.13;;;35.10;1.00;;;;;;5096613;28;20401;-46
2023/06/29 11:57:32;;;;;;;9.03;8.13;;;33.90;1.00;;;;;;5113243;28;20844;-49
2023/06/29 11:59:58;;;;;;;8.90;8.00;;;33.30;1.00;;;;;;5114463;28;20414;-51
2023/06/29 12:02:24;;;;;;;9.73;8.73;;;33.40;1.00;;;;;;5114995;28;20396;-47
2023/06/29 12:04:57;;;;;;;9.80;8.80;;;33.40;1.00;;;;;;5115207;28;20180;-47
2023/06/29 12:07:38;;;;;;;10.57;8.97;;;33.90;1.00;;;;;;5115240;28;20295;-51
2023/06/29 12:10:09;;;;;;;9.03;8.13;;;34.50;1.00;;;;;;5114460;28;20416;-51
2023/06/29 12:12:36;;;;;;;8.63;7.60;;;34.50;1.00;;;;;;5112991;28;20429;-52
2023/06/29 12:15:15;;;;;;;9.90;8.90;;;34.10;1.00;;;;;;5114707;28;20633;-48
2023/06/29 12:17:42;;;;;;;9.73;8.83;;;33.30;1.00;;;;;;5114607;28;20452;-47
2023/06/29 12:20:18;;;;;;;9.90;9.00;;;32.90;1.00;;;;;;5112825;28;20388;-47
2023/06/29 12:22:45;;;;;;;9.60;8.60;;;31.70;1.00;;;;;;5113400;28;20480;-46
2023/06/29 12:25:12;;;;;;;9.37;8.03;;;31.20;1.00;;;;;;5113494;28;20508;-51
2023/06/29 12:27:40;;;;;;;8.90;7.00;;;31.20;1.00;;;;;;5111823;28;20413;-50
2023/06/29 12:30:07;;;;;;;8.13;6.53;;;31.30;1.00;;;;;;5112986;28;20403;-48
2023/06/29 12:32:33;;;;;;;8.23;7.43;;;31.30;1.00;;;;;;5114355;28;20421;-47
2023/06/29 12:34:58;;;;;;;8.90;7.80;;;31.40;1.00;;;;;;5113944;28;20432;-51
2023/06/29 12:37:24;;;;;;;7.73;7.03;;;31.50;1.00;;;;;;5114586;28;20184;-46
2023/06/29 12:39:49;;;;;;;9.47;6.90;;;31.80;1.00;;;;;;5114705;28;20322;-46
2023/06/29 12:42:15;;;;;;;7.63;6.60;;;32.10;1.00;;;;;;5115101;28;20180;-48
2023/06/29 12:44:41;;;;;;;7.40;6.10;;;32.10;1.00;;;;;;5115023;28;20425;-47
2023/06/29 12:47:06;;;;;;;8.33;4.97;;;31.80;1.00;;;;;;5118803;27;20608;-51
2023/06/29 12:49:32;;;;;;;5.90;5.30;;;31.70;1.00;;;;;;5113267;28;20183;-49
2023/06/29 12:51:58;;;;;;;5.40;4.90;;;31.90;1.00;;;;;;5114384;28;20422;-48
2023/06/29 12:54:24;;;;;;;8.30;4.70;;;32.10;1.00;;;;;;5114095;28;20236;-49